sensor_id;sensor_type;location;lat;lon;timestamp;pressure;altitude;pressure_sealevel;temperature;humidity
42385;BME280;28042;43.986;22.860;2023-12-04T00:00:40;102084.63;;;-1.55;93.83
42385;BME280;28042;43.986;22.860;2023-12-04T00:03:05;102090.75;;;-1.53;93.63
42385;BME280;28042;43.986;22.860;2023-12-04T00:05:31;102115.69;;;-1.36;93.24
42385;BME280;28042;43.986;22.860;2023-12-04T00:07:56;102132.63;;;-1.20;92.33
42385;BME280;28042;43.986;22.860;2023-12-04T00:10:22;102115.34;;;-1.30;91.90
42385;BME280;28042;43.986;22.860;2023-12-04T00:12:47;102101.16;;;-1.17;89.78
42385;BME280;28042;43.986;22.860;2023-12-04T00:15:13;102125.88;;;-1.11;90.34
42385;BME280;28042;43.986;22.860;2023-12-04T00:17:38;102139.00;;;-1.07;90.12
42385;BME280;28042;43.986;22.860;2023-12-04T00:20:09;102127.25;;;-1.20;90.30
42385;BME280;28042;43.986;22.860;2023-12-04T00:22:36;102133.97;;;-1.13;89.94
42385;BME280;28042;43.986;22.860;2023-12-04T00:25:02;102150.84;;;-1.11;90.16
42385;BME280;28042;43.986;22.860;2023-12-04T00:27:29;102111.00;;;-1.33;89.95
42385;BME280;28042;43.986;22.860;2023-12-04T00:29:54;102158.97;;;-1.12;90.32
42385;BME280;28042;43.986;22.860;2023-12-04T00:32:20;102155.50;;;-1.30;91.24
42385;BME280;28042;43.986;22.860;2023-12-04T00:34:45;102158.69;;;-1.24;91.13
42385;BME280;28042;43.986;22.860;2023-12-04T00:37:11;102158.00;;;-1.27;90.98
42385;BME280;28042;43.986;22.860;2023-12-04T00:39:37;102158.00;;;-1.27;91.25
42385;BME280;28042;43.986;22.860;2023-12-04T00:42:02;102156.44;;;-1.31;91.49
42385;BME280;28042;43.986;22.860;2023-12-04T00:44:28;102154.13;;;-1.37;91.88
42385;BME280;28042;43.986;22.860;2023-12-04T00:46:53;102149.72;;;-1.38;92.40
42385;BME280;28042;43.986;22.860;2023-12-04T00:49:18;102111.69;;;-1.61;93.21
42385;BME280;28042;43.986;22.860;2023-12-04T00:51:44;102141.84;;;-1.42;92.90
42385;BME280;28042;43.986;22.860;2023-12-04T00:54:10;102129.50;;;-1.44;92.34
42385;BME280;28042;43.986;22.860;2023-12-04T00:56:38;102140.88;;;-1.40;92.56
42385;BME280;28042;43.986;22.860;2023-12-04T00:59:05;102140.53;;;-1.34;91.81
42385;BME280;28042;43.986;22.860;2023-12-04T01:01:32;102143.84;;;-1.29;91.07
42385;BME280;28042;43.986;22.860;2023-12-04T01:03:57;102155.13;;;-1.24;90.47
42385;BME280;28042;43.986;22.860;2023-12-04T01:06:23;102145.56;;;-1.28;90.22
42385;BME280;28042;43.986;22.860;2023-12-04T01:08:49;102110.00;;;-1.46;89.69
42385;BME280;28042;43.986;22.860;2023-12-04T01:11:16;102146.16;;;-1.23;89.09
42385;BME280;28042;43.986;22.860;2023-12-04T01:13:42;102147.81;;;-1.21;88.63
42385;BME280;28042;43.986;22.860;2023-12-04T01:16:08;102139.94;;;-1.24;88.19
42385;BME280;28042;43.986;22.860;2023-12-04T01:18:34;102132.00;;;-1.25;87.51
42385;BME280;28042;43.986;22.860;2023-12-04T01:21:00;102157.91;;;-1.10;86.55
42385;BME280;28042;43.986;22.860;2023-12-04T01:23:26;102160.75;;;-1.13;86.71
42385;BME280;28042;43.986;22.860;2023-12-04T01:25:51;102143.03;;;-1.31;87.08
42385;BME280;28042;43.986;22.860;2023-12-04T01:28:17;102136.38;;;-1.40;87.67
42385;BME280;28042;43.986;22.860;2023-12-04T01:30:42;102162.72;;;-1.32;88.39
42385;BME280;28042;43.986;22.860;2023-12-04T01:33:07;102133.78;;;-1.57;89.71
42385;BME280;28042;43.986;22.860;2023-12-04T01:35:34;102133.28;;;-1.64;90.68
42385;BME280;28042;43.986;22.860;2023-12-04T01:37:59;102159.53;;;-1.55;91.19
42385;BME280;28042;43.986;22.860;2023-12-04T01:40:26;102156.41;;;-1.63;91.37
42385;BME280;28042;43.986;22.860;2023-12-04T01:42:52;102126.84;;;-1.77;91.62
42385;BME280;28042;43.986;22.860;2023-12-04T01:45:17;102166.06;;;-1.60;91.68
42385;BME280;28042;43.986;22.860;2023-12-04T01:47:44;102133.84;;;-1.75;90.82
42385;BME280;28042;43.986;22.860;2023-12-04T01:50:12;102118.41;;;-1.69;89.92
42385;BME280;28042;43.986;22.860;2023-12-04T01:52:38;102112.22;;;-1.70;89.54
42385;BME280;28042;43.986;22.860;2023-12-04T01:55:06;102118.09;;;-1.63;89.36
42385;BME280;28042;43.986;22.860;2023-12-04T01:57:33;102130.88;;;-1.53;89.60
42385;BME280;28042;43.986;22.860;2023-12-04T01:59:59;102132.16;;;-1.60;90.28
42385;BME280;28042;43.986;22.860;2023-12-04T02:02:25;102151.19;;;-1.66;91.12
42385;BME280;28042;43.986;22.860;2023-12-04T02:04:54;102141.19;;;-1.78;91.87
42385;BME280;28042;43.986;22.860;2023-12-04T02:07:20;102128.63;;;-1.93;92.75
42385;BME280;28042;43.986;22.860;2023-12-04T02:09:46;102144.25;;;-1.86;93.29
42385;BME280;28042;43.986;22.860;2023-12-04T02:12:11;102147.88;;;-1.87;93.66
42385;BME280;28042;43.986;22.860;2023-12-04T02:14:37;102163.06;;;-1.87;93.98
42385;BME280;28042;43.986;22.860;2023-12-04T02:17:05;102157.91;;;-1.90;94.53
42385;BME280;28042;43.986;22.860;2023-12-04T02:19:31;102163.72;;;-2.00;94.75
42385;BME280;28042;43.986;22.860;2023-12-04T02:21:57;102125.69;;;-2.22;95.25
42385;BME280;28042;43.986;22.860;2023-12-04T02:24:22;102156.50;;;-1.97;95.48
42385;BME280;28042;43.986;22.860;2023-12-04T02:26:53;102165.78;;;-2.05;95.62
42385;BME280;28042;43.986;22.860;2023-12-04T02:29:24;102171.13;;;-2.05;95.57
42385;BME280;28042;43.986;22.860;2023-12-04T02:31:53;102178.09;;;-2.02;95.27
42385;BME280;28042;43.986;22.860;2023-12-04T02:34:20;102141.91;;;-2.25;95.18
42385;BME280;28042;43.986;22.860;2023-12-04T02:36:46;102154.38;;;-2.08;93.86
42385;BME280;28042;43.986;22.860;2023-12-04T02:39:13;102145.81;;;-2.15;94.02
42385;BME280;28042;43.986;22.860;2023-12-04T02:41:39;102168.72;;;-1.93;93.17
42385;BME280;28042;43.986;22.860;2023-12-04T02:44:04;102159.28;;;-1.83;91.66
42385;BME280;28042;43.986;22.860;2023-12-04T02:46:30;102148.38;;;-1.96;91.41
42385;BME280;28042;43.986;22.860;2023-12-04T02:48:55;102184.47;;;-1.87;91.72
42385;BME280;28042;43.986;22.860;2023-12-04T02:51:21;102182.72;;;-1.88;92.19
42385;BME280;28042;43.986;22.860;2023-12-04T02:53:46;102183.81;;;-1.92;92.25
42385;BME280;28042;43.986;22.860;2023-12-04T02:56:11;102152.88;;;-2.14;92.01
42385;BME280;28042;43.986;22.860;2023-12-04T02:58:37;102179.28;;;-1.90;91.79
42385;BME280;28042;43.986;22.860;2023-12-04T03:01:02;102185.47;;;-1.73;90.89
42385;BME280;28042;43.986;22.860;2023-12-04T03:03:28;102172.97;;;-1.72;90.59
42385;BME280;28042;43.986;22.860;2023-12-04T03:05:53;102158.25;;;-1.81;89.61
42385;BME280;28042;43.986;22.860;2023-12-04T03:08:19;102159.28;;;-1.83;89.70
42385;BME280;28042;43.986;22.860;2023-12-04T03:10:44;102158.09;;;-1.78;89.33
42385;BME280;28042;43.986;22.860;2023-12-04T03:13:10;102165.38;;;-1.64;88.45
42385;BME280;28042;43.986;22.860;2023-12-04T03:15:35;102171.59;;;-1.63;88.61
42385;BME280;28042;43.986;22.860;2023-12-04T03:18:00;102176.97;;;-1.48;88.33
42385;BME280;28042;43.986;22.860;2023-12-04T03:20:26;102151.19;;;-1.66;87.89
42385;BME280;28042;43.986;22.860;2023-12-04T03:22:52;102182.34;;;-1.48;87.78
42385;BME280;28042;43.986;22.860;2023-12-04T03:25:17;102153.72;;;-1.63;87.64
42385;BME280;28042;43.986;22.860;2023-12-04T03:27:43;102152.06;;;-1.65;87.83
42385;BME280;28042;43.986;22.860;2023-12-04T03:30:08;102163.81;;;-1.68;88.41
42385;BME280;28042;43.986;22.860;2023-12-04T03:32:34;102183.16;;;-1.63;88.86
42385;BME280;28042;43.986;22.860;2023-12-04T03:34:59;102182.22;;;-1.62;88.83
42385;BME280;28042;43.986;22.860;2023-12-04T03:37:26;102193.34;;;-1.54;88.53
42385;BME280;28042;43.986;22.860;2023-12-04T14:56:03;102226.88;;;0.67;100.00
42385;BME280;28042;43.986;22.860;2023-12-04T14:58:46;102231.66;;;0.76;100.00
42385;BME280;28042;43.986;22.860;2023-12-04T15:01:30;102233.31;;;0.78;100.00
42385;BME280;28042;43.986;22.860;2023-12-04T15:04:34;102205.09;;;0.57;100.00
42385;BME280;28042;43.986;22.860;2023-12-04T15:07:18;102237.34;;;0.71;100.00
42385;BME280;28042;43.986;22.860;2023-12-04T15:09:46;102229.56;;;0.67;100.00
42385;BME280;28042;43.986;22.860;2023-12-04T15:12:30;102236.00;;;0.64;100.00
42385;BME280;28042;43.986;22.860;2023-12-04T15:15:18;102238.88;;;0.61;100.00
42385;BME280;28042;43.986;22.860;2023-12-04T15:18:02;102235.00;;;0.51;100.00
42385;BME280;28042;43.986;22.860;2023-12-04T15:20:46;102201.94;;;0.22;100.00
42385;BME280;28042;43.986;22.860;2023-12-04T15:23:12;102208.91;;;0.24;100.00
42385;BME280;28042;43.986;22.860;2023-12-04T15:25:37;102216.41;;;0.19;100.00
42385;BME280;28042;43.986;22.860;2023-12-04T15:28:03;102241.72;;;0.30;100.00
42385;BME280;28042;43.986;22.860;2023-12-04T15:30:33;102245.72;;;0.22;100.00
42385;BME280;28042;43.986;22.860;2023-12-04T15:32:59;102241.97;;;0.11;100.00
42385;BME280;28042;43.986;22.860;2023-12-04T15:35:24;102250.47;;;0.03;100.00
42385;BME280;28042;43.986;22.860;2023-12-04T15:37:50;102213.88;;;-0.28;100.00
42385;BME280;28042;43.986;22.860;2023-12-04T15:40:15;102221.03;;;-0.43;100.00
42385;BME280;28042;43.986;22.860;2023-12-04T15:42:41;102176.97;;;-0.69;100.00
42385;BME280;28042;43.986;22.860;2023-12-04T15:45:06;102249.59;;;-0.28;100.00
42385;BME280;28042;43.986;22.860;2023-12-04T15:47:32;102246.59;;;-0.37;100.00
42385;BME280;28042;43.986;22.860;2023-12-04T15:49:57;102232.28;;;-0.52;100.00
42385;BME280;28042;43.986;22.860;2023-12-04T15:52:23;102245.50;;;-0.49;100.00
42385;BME280;28042;43.986;22.860;2023-12-04T15:54:51;102249.22;;;-0.51;100.00
42385;BME280;28042;43.986;22.860;2023-12-04T15:57:17;102223.53;;;-0.71;100.00
42385;BME280;28042;43.986;22.860;2023-12-04T15:59:43;102262.00;;;-0.57;100.00
42385;BME280;28042;43.986;22.860;2023-12-04T16:02:10;102257.84;;;-0.62;100.00
42385;BME280;28042;43.986;22.860;2023-12-04T16:04:36;102231.94;;;-0.77;100.00
42385;BME280;28042;43.986;22.860;2023-12-04T16:07:01;102281.19;;;-0.64;100.00
42385;BME280;28042;43.986;22.860;2023-12-04T16:09:26;102239.69;;;-0.89;100.00
42385;BME280;28042;43.986;22.860;2023-12-04T16:11:52;102253.53;;;-0.80;100.00
42385;BME280;28042;43.986;22.860;2023-12-04T16:14:18;102284.06;;;-0.67;100.00
42385;BME280;28042;43.986;22.860;2023-12-04T16:16:43;102246.03;;;-0.90;100.00
42385;BME280;28042;43.986;22.860;2023-12-04T16:19:09;102274.44;;;-0.71;100.00
42385;BME280;28042;43.986;22.860;2023-12-04T16:21:36;102238.31;;;-0.96;100.00
42385;BME280;28042;43.986;22.860;2023-12-04T16:24:01;102277.13;;;-0.71;100.00
42385;BME280;28042;43.986;22.860;2023-12-04T16:26:29;102249.31;;;-0.84;100.00
42385;BME280;28042;43.986;22.860;2023-12-04T16:28:57;102271.44;;;-0.81;100.00
42385;BME280;28042;43.986;22.860;2023-12-04T16:31:22;102270.84;;;-0.86;100.00
42385;BME280;28042;43.986;22.860;2023-12-04T16:33:48;102228.63;;;-1.14;100.00
42385;BME280;28042;43.986;22.860;2023-12-04T16:36:15;102263.03;;;-0.91;100.00
42385;BME280;28042;43.986;22.860;2023-12-04T16:38:40;102274.81;;;-0.93;100.00
42385;BME280;28042;43.986;22.860;2023-12-04T16:41:06;102266.84;;;-0.95;100.00
42385;BME280;28042;43.986;22.860;2023-12-04T16:43:33;102267.88;;;-0.97;100.00
42385;BME280;28042;43.986;22.860;2023-12-04T16:45:59;102234.94;;;-1.15;100.00
42385;BME280;28042;43.986;22.860;2023-12-04T16:48:24;102282.13;;;-0.97;100.00
42385;BME280;28042;43.986;22.860;2023-12-04T16:50:50;102270.03;;;-1.04;100.00
42385;BME280;28042;43.986;22.860;2023-12-04T16:53:15;102240.78;;;-1.24;100.00
42385;BME280;28042;43.986;22.860;2023-12-04T16:55:41;102279.94;;;-1.06;100.00
42385;BME280;28042;43.986;22.860;2023-12-04T16:58:06;102273.03;;;-1.10;100.00
42385;BME280;28042;43.986;22.860;2023-12-04T17:00:32;102261.13;;;-1.20;100.00
42385;BME280;28042;43.986;22.860;2023-12-04T17:02:59;102258.75;;;-1.26;100.00
42385;BME280;28042;43.986;22.860;2023-12-04T17:05:25;102264.75;;;-1.21;100.00
42385;BME280;28042;43.986;22.860;2023-12-04T17:07:52;102275.28;;;-1.18;100.00
42385;BME280;28042;43.986;22.860;2023-12-04T17:10:17;102278.44;;;-1.27;100.00
42385;BME280;28042;43.986;22.860;2023-12-04T17:12:45;102279.72;;;-1.34;100.00
42385;BME280;28042;43.986;22.860;2023-12-04T17:15:11;102250.78;;;-1.44;100.00
42385;BME280;28042;43.986;22.860;2023-12-04T17:17:37;102229.53;;;-1.47;100.00
42385;BME280;28042;43.986;22.860;2023-12-04T17:20:03;102280.63;;;-1.18;100.00
42385;BME280;28042;43.986;22.860;2023-12-04T17:22:29;102264.19;;;-1.28;100.00
42385;BME280;28042;43.986;22.860;2023-12-04T17:24:55;102273.88;;;-1.25;100.00
42385;BME280;28042;43.986;22.860;2023-12-04T17:27:21;102268.53;;;-1.25;100.00
42385;BME280;28042;43.986;22.860;2023-12-04T17:29:46;102269.47;;;-1.26;100.00
42385;BME280;28042;43.986;22.860;2023-12-04T17:32:12;102276.38;;;-1.22;100.00
42385;BME280;28042;43.986;22.860;2023-12-04T17:34:38;102271.50;;;-1.31;100.00
42385;BME280;28042;43.986;22.860;2023-12-04T17:37:04;102253.63;;;-1.47;100.00
42385;BME280;28042;43.986;22.860;2023-12-04T17:39:30;102259.44;;;-1.38;100.00
42385;BME280;28042;43.986;22.860;2023-12-04T17:41:56;102298.75;;;-1.23;100.00
42385;BME280;28042;43.986;22.860;2023-12-04T17:44:21;102283.66;;;-1.42;100.00
42385;BME280;28042;43.986;22.860;2023-12-04T17:46:47;102310.31;;;-1.23;100.00
42385;BME280;28042;43.986;22.860;2023-12-04T17:49:12;102284.13;;;-1.33;100.00
42385;BME280;28042;43.986;22.860;2023-12-04T17:51:39;102316.22;;;-1.16;100.00
42385;BME280;28042;43.986;22.860;2023-12-04T17:54:05;102322.97;;;-1.09;100.00
42385;BME280;28042;43.986;22.860;2023-12-04T17:56:30;102294.91;;;-1.35;100.00
42385;BME280;28042;43.986;22.860;2023-12-04T17:58:55;102319.75;;;-1.16;100.00
42385;BME280;28042;43.986;22.860;2023-12-04T18:01:21;102317.78;;;-1.12;100.00
42385;BME280;28042;43.986;22.860;2023-12-04T18:03:46;102270.59;;;-1.30;100.00
42385;BME280;28042;43.986;22.860;2023-12-04T18:06:12;102260.50;;;-1.25;100.00
42385;BME280;28042;43.986;22.860;2023-12-04T18:08:41;102264.75;;;-1.21;100.00
42385;BME280;28042;43.986;22.860;2023-12-04T18:11:07;102266.09;;;-1.14;100.00
42385;BME280;28042;43.986;22.860;2023-12-04T18:13:32;102281.66;;;-1.05;100.00
42385;BME280;28042;43.986;22.860;2023-12-04T18:15:59;102288.25;;;-1.10;100.00
42385;BME280;28042;43.986;22.860;2023-12-04T18:18:24;102297.91;;;-1.08;100.00
42385;BME280;28042;43.986;22.860;2023-12-04T18:20:50;102262.56;;;-1.15;100.00
42385;BME280;28042;43.986;22.860;2023-12-04T18:23:17;102258.53;;;-1.06;100.00
42385;BME280;28042;43.986;22.860;2023-12-04T18:25:43;102300.56;;;-0.75;100.00
42385;BME280;28042;43.986;22.860;2023-12-04T18:28:10;102292.25;;;-0.70;100.00
42385;BME280;28042;43.986;22.860;2023-12-04T18:30:36;102268.59;;;-0.78;100.00
42385;BME280;28042;43.986;22.860;2023-12-04T18:33:03;102256.59;;;-0.87;100.00
42385;BME280;28042;43.986;22.860;2023-12-04T18:35:29;102277.94;;;-0.69;100.00
42385;BME280;28042;43.986;22.860;2023-12-04T18:37:58;102279.66;;;-0.68;100.00
42385;BME280;28042;43.986;22.860;2023-12-04T18:40:27;102282.16;;;-0.65;100.00
42385;BME280;28042;43.986;22.860;2023-12-04T18:42:52;102248.69;;;-0.90;100.00
42385;BME280;28042;43.986;22.860;2023-12-04T18:45:19;102264.97;;;-0.77;100.00
42385;BME280;28042;43.986;22.860;2023-12-04T18:47:49;102277.22;;;-0.73;100.00
42385;BME280;28042;43.986;22.860;2023-12-04T18:50:16;102282.56;;;-0.73;100.00
42385;BME280;28042;43.986;22.860;2023-12-04T18:52:42;102277.50;;;-0.77;100.00
42385;BME280;28042;43.986;22.860;2023-12-04T18:55:08;102276.53;;;-0.76;100.00
42385;BME280;28042;43.986;22.860;2023-12-04T18:57:33;102281.81;;;-0.75;100.00
42385;BME280;28042;43.986;22.860;2023-12-04T18:59:59;102278.41;;;-0.78;100.00
42385;BME280;28042;43.986;22.860;2023-12-04T19:02:24;102280.31;;;-0.80;100.00
42385;BME280;28042;43.986;22.860;2023-12-04T19:04:49;102271.84;;;-0.89;100.00
42385;BME280;28042;43.986;22.860;2023-12-04T19:07:15;102264.69;;;-0.88;100.00
42385;BME280;28042;43.986;22.860;2023-12-04T19:09:40;102259.16;;;-1.01;100.00
42385;BME280;28042;43.986;22.860;2023-12-04T19:12:07;102230.88;;;-1.22;100.00
42385;BME280;28042;43.986;22.860;2023-12-04T19:14:33;102284.66;;;-0.94;100.00
42385;BME280;28042;43.986;22.860;2023-12-04T19:16:59;102251.50;;;-1.24;100.00
42385;BME280;28042;43.986;22.860;2023-12-04T19:19:24;102233.94;;;-1.46;100.00
42385;BME280;28042;43.986;22.860;2023-12-04T19:21:50;102282.53;;;-1.20;100.00
42385;BME280;28042;43.986;22.860;2023-12-04T19:24:15;102256.31;;;-1.47;100.00
42385;BME280;28042;43.986;22.860;2023-12-04T19:26:42;102269.19;;;-1.37;100.00
42385;BME280;28042;43.986;22.860;2023-12-04T19:29:07;102247.81;;;-1.55;100.00
42385;BME280;28042;43.986;22.860;2023-12-04T19:31:32;102236.56;;;-1.61;100.00
42385;BME280;28042;43.986;22.860;2023-12-04T19:33:58;102274.78;;;-1.42;100.00
42385;BME280;28042;43.986;22.860;2023-12-04T19:36:23;102281.94;;;-1.43;100.00
42385;BME280;28042;43.986;22.860;2023-12-04T19:38:49;102256.47;;;-1.67;100.00
42385;BME280;28042;43.986;22.860;2023-12-04T19:41:14;102275.53;;;-1.56;100.00
42385;BME280;28042;43.986;22.860;2023-12-04T19:43:40;102291.88;;;-1.62;100.00
42385;BME280;28042;43.986;22.860;2023-12-04T19:46:05;102273.25;;;-1.81;100.00
42385;BME280;28042;43.986;22.860;2023-12-04T19:48:31;102288.84;;;-1.72;100.00
42385;BME280;28042;43.986;22.860;2023-12-04T19:50:56;102262.19;;;-1.90;100.00
42385;BME280;28042;43.986;22.860;2023-12-04T19:53:22;102299.28;;;-1.67;100.00
42385;BME280;28042;43.986;22.860;2023-12-04T19:55:47;102256.41;;;-1.83;100.00
42385;BME280;28042;43.986;22.860;2023-12-04T19:58:12;102293.81;;;-1.48;100.00
42385;BME280;28042;43.986;22.860;2023-12-04T20:00:38;102249.78;;;-1.58;100.00
42385;BME280;28042;43.986;22.860;2023-12-04T20:03:03;102268.84;;;-1.31;100.00
42385;BME280;28042;43.986;22.860;2023-12-04T20:05:35;102267.25;;;-1.18;100.00
42385;BME280;28042;43.986;22.860;2023-12-04T20:08:01;102260.63;;;-1.11;100.00
42385;BME280;28042;43.986;22.860;2023-12-04T20:10:26;102258.38;;;-1.03;100.00
42385;BME280;28042;43.986;22.860;2023-12-04T20:12:52;102250.06;;;-0.98;100.00
42385;BME280;28042;43.986;22.860;2023-12-04T20:15:17;102262.00;;;-0.88;100.00
42385;BME280;28042;43.986;22.860;2023-12-04T20:17:42;102224.16;;;-0.98;100.00
42385;BME280;28042;43.986;22.860;2023-12-04T20:20:09;102238.00;;;-0.74;100.00
42385;BME280;28042;43.986;22.860;2023-12-04T20:22:35;102238.50;;;-0.67;100.00
42385;BME280;28042;43.986;22.860;2023-12-04T20:25:01;102232.97;;;-0.64;100.00
42385;BME280;28042;43.986;22.860;2023-12-04T20:27:28;102238.13;;;-0.45;100.00
42385;BME280;28042;43.986;22.860;2023-12-04T20:29:54;102240.72;;;-0.44;100.00
42385;BME280;28042;43.986;22.860;2023-12-04T20:32:19;102194.34;;;-0.60;100.00
42385;BME280;28042;43.986;22.860;2023-12-04T20:34:45;102209.91;;;-0.37;100.00
42385;BME280;28042;43.986;22.860;2023-12-04T20:37:11;102183.66;;;-0.46;100.00
42385;BME280;28042;43.986;22.860;2023-12-04T20:39:38;102169.03;;;-0.40;100.00
42385;BME280;28042;43.986;22.860;2023-12-04T20:42:04;102170.50;;;-0.35;100.00
42385;BME280;28042;43.986;22.860;2023-12-04T20:44:29;102174.97;;;-0.35;100.00
42385;BME280;28042;43.986;22.860;2023-12-04T20:46:55;102172.91;;;-0.30;100.00
42385;BME280;28042;43.986;22.860;2023-12-04T20:49:20;102195.16;;;-0.14;100.00
42385;BME280;28042;43.986;22.860;2023-12-04T20:51:49;102212.72;;;-0.08;100.00
42385;BME280;28042;43.986;22.860;2023-12-04T20:54:14;102186.03;;;-0.25;100.00
42385;BME280;28042;43.986;22.860;2023-12-04T20:56:40;102174.81;;;-0.32;100.00
42385;BME280;28042;43.986;22.860;2023-12-04T20:59:05;102216.16;;;-0.06;100.00
42385;BME280;28042;43.986;22.860;2023-12-04T21:01:31;102221.81;;;0.04;100.00
42385;BME280;28042;43.986;22.860;2023-12-04T21:03:56;102219.91;;;0.06;100.00
42385;BME280;28042;43.986;22.860;2023-12-04T21:06:22;102200.63;;;-0.15;100.00
42385;BME280;28042;43.986;22.860;2023-12-04T21:08:47;102231.91;;;0.00;100.00
42385;BME280;28042;43.986;22.860;2023-12-04T21:11:13;102235.25;;;0.04;100.00
42385;BME280;28042;43.986;22.860;2023-12-04T21:13:38;102228.81;;;0.06;100.00
42385;BME280;28042;43.986;22.860;2023-12-04T21:16:04;102180.34;;;-0.05;100.00
42385;BME280;28042;43.986;22.860;2023-12-04T21:18:30;102206.22;;;0.10;100.00
42385;BME280;28042;43.986;22.860;2023-12-04T21:20:55;102205.06;;;0.14;100.00
42385;BME280;28042;43.986;22.860;2023-12-04T21:23:20;102218.03;;;0.22;100.00
42385;BME280;28042;43.986;22.860;2023-12-04T21:25:46;102185.91;;;0.06;100.00
42385;BME280;28042;43.986;22.860;2023-12-04T21:28:11;102200.06;;;0.08;100.00
42385;BME280;28042;43.986;22.860;2023-12-04T21:30:37;102188.38;;;-0.05;100.00
42385;BME280;28042;43.986;22.860;2023-12-04T21:33:02;102210.03;;;0.06;100.00
42385;BME280;28042;43.986;22.860;2023-12-04T21:35:28;102165.91;;;-0.18;100.00
42385;BME280;28042;43.986;22.860;2023-12-04T21:37:54;102177.91;;;-0.10;100.00
42385;BME280;28042;43.986;22.860;2023-12-04T21:40:19;102201.06;;;0.21;100.00
42385;BME280;28042;43.986;22.860;2023-12-04T21:42:45;102201.72;;;0.25;100.00
42385;BME280;28042;43.986;22.860;2023-12-04T21:45:10;102209.31;;;0.18;100.00
42385;BME280;28042;43.986;22.860;2023-12-04T21:47:36;102206.22;;;0.10;100.00
42385;BME280;28042;43.986;22.860;2023-12-04T21:50:03;102194.72;;;0.08;100.00
42385;BME280;28042;43.986;22.860;2023-12-04T21:52:29;102163.00;;;0.01;100.00
42385;BME280;28042;43.986;22.860;2023-12-04T21:54:56;102165.88;;;-0.03;100.00
42385;BME280;28042;43.986;22.860;2023-12-04T21:57:21;102149.91;;;0.10;100.00
42385;BME280;28042;43.986;22.860;2023-12-04T21:59:47;102195.50;;;0.24;100.00
42385;BME280;28042;43.986;22.860;2023-12-04T22:02:12;102188.97;;;0.14;100.00
42385;BME280;28042;43.986;22.860;2023-12-04T22:04:38;102196.38;;;0.11;100.00
42385;BME280;28042;43.986;22.860;2023-12-04T22:07:03;102178.41;;;-0.03;100.00
42385;BME280;28042;43.986;22.860;2023-12-04T22:09:29;102173.81;;;-0.01;100.00
42385;BME280;28042;43.986;22.860;2023-12-04T22:11:54;102165.19;;;-0.06;100.00
42385;BME280;28042;43.986;22.860;2023-12-04T22:14:22;102164.44;;;0.06;100.00
42385;BME280;28042;43.986;22.860;2023-12-04T22:16:47;102188.63;;;0.20;100.00
42385;BME280;28042;43.986;22.860;2023-12-04T22:19:13;102177.50;;;0.26;100.00
42385;BME280;28042;43.986;22.860;2023-12-04T22:21:38;102191.28;;;0.35;100.00
42385;BME280;28042;43.986;22.860;2023-12-04T22:24:04;102180.38;;;0.38;100.00
42385;BME280;28042;43.986;22.860;2023-12-04T22:26:29;102155.84;;;0.30;100.00
42385;BME280;28042;43.986;22.860;2023-12-04T22:28:55;102149.13;;;0.22;100.00
42385;BME280;28042;43.986;22.860;2023-12-04T22:31:21;102141.25;;;0.34;100.00
42385;BME280;28042;43.986;22.860;2023-12-04T22:33:47;102170.59;;;0.37;100.00
42385;BME280;28042;43.986;22.860;2023-12-04T22:36:12;102181.25;;;0.52;100.00
42385;BME280;28042;43.986;22.860;2023-12-04T22:38:40;102150.28;;;0.47;100.00
42385;BME280;28042;43.986;22.860;2023-12-04T22:41:05;102167.72;;;0.54;100.00
42385;BME280;28042;43.986;22.860;2023-12-04T22:43:31;102141.19;;;0.21;100.00
42385;BME280;28042;43.986;22.860;2023-12-04T22:45:56;102147.03;;;0.27;100.00
42385;BME280;28042;43.986;22.860;2023-12-04T22:48:23;102171.06;;;0.57;100.00
42385;BME280;28042;43.986;22.860;2023-12-04T22:50:48;102163.41;;;0.37;100.00
42385;BME280;28042;43.986;22.860;2023-12-04T22:53:14;102133.22;;;0.19;100.00
42385;BME280;28042;43.986;22.860;2023-12-04T22:55:39;102155.84;;;0.44;100.00
42385;BME280;28042;43.986;22.860;2023-12-04T22:58:05;102164.63;;;0.60;100.00
42385;BME280;28042;43.986;22.860;2023-12-04T23:00:30;102176.44;;;0.57;100.00
42385;BME280;28042;43.986;22.860;2023-12-04T23:02:56;102168.09;;;0.62;100.00
42385;BME280;28042;43.986;22.860;2023-12-04T23:05:22;102151.03;;;0.49;100.00
42385;BME280;28042;43.986;22.860;2023-12-04T23:07:47;102135.13;;;0.46;100.00
42385;BME280;28042;43.986;22.860;2023-12-04T23:10:14;102143.34;;;0.57;100.00
42385;BME280;28042;43.986;22.860;2023-12-04T23:12:40;102144.50;;;0.67;100.00
42385;BME280;28042;43.986;22.860;2023-12-04T23:15:06;102114.22;;;0.51;100.00
42385;BME280;28042;43.986;22.860;2023-12-04T23:17:31;102101.97;;;0.47;100.00
42385;BME280;28042;43.986;22.860;2023-12-04T23:19:57;102115.28;;;0.48;100.00
42385;BME280;28042;43.986;22.860;2023-12-04T23:22:23;102160.13;;;0.75;100.00
42385;BME280;28042;43.986;22.860;2023-12-04T23:24:49;102122.56;;;0.46;100.00
42385;BME280;28042;43.986;22.860;2023-12-04T23:27:14;102158.22;;;0.63;100.00
42385;BME280;28042;43.986;22.860;2023-12-04T23:29:40;102127.19;;;0.44;100.00
42385;BME280;28042;43.986;22.860;2023-12-04T23:32:06;102136.84;;;0.47;100.00
42385;BME280;28042;43.986;22.860;2023-12-04T23:34:34;102129.34;;;0.52;100.00
42385;BME280;28042;43.986;22.860;2023-12-04T23:37:00;102154.31;;;0.54;100.00
42385;BME280;28042;43.986;22.860;2023-12-04T23:39:25;102120.84;;;0.17;100.00
42385;BME280;28042;43.986;22.860;2023-12-04T23:41:50;102142.91;;;0.22;100.00
42385;BME280;28042;43.986;22.860;2023-12-04T23:44:16;102151.13;;;0.33;100.00
42385;BME280;28042;43.986;22.860;2023-12-04T23:46:41;102142.59;;;0.41;100.00